Mocajuba, Brazil
Current Conditions -  °F | °C
As of 4:00 PM on Saturday 25 Oct 2014 (Local Time) from SBBE Reporting Station
Light Rain Light Rain  
Wind Chill: 84°   Ceiling: 2500
Heat Index: 94°   Visibility: 6mi
Dew Point: 77°   Wind: 15mph
Humidity: 79%   Direction: 340°NNW
Pressure: 29.74"   Gusts: NA
Location:  2.58°S, 49.51°W
Report Text: SBBE 251900Z 34013KT 9999 -RA BKN025 FEW030TCU 29/25 Q1007
Loading
Personal Weather Stations






























Interactive Weather Map
Tropical Storm Tracking
New forecast layout! Learn more

10-Day Weather Forecast

Advertisements
Track Severe Weather on mobile